createdAt,value
2018-05-24T00:00:08.092Z,50.70
2018-05-24T00:02:37.093Z,50.30
2018-05-24T00:05:05.312Z,50.30
2018-05-24T00:07:33.547Z,51.00
2018-05-24T00:10:01.964Z,51.00
2018-05-24T00:12:30.961Z,51.60
2018-05-24T00:14:59.174Z,51.50
2018-05-24T00:17:28.169Z,52.20
2018-05-24T00:19:57.141Z,56.10
2018-05-24T00:22:25.364Z,56.10
2018-05-24T00:24:54.358Z,53.40
2018-05-24T00:27:23.454Z,53.20
2018-05-24T00:29:51.665Z,56.10
2018-05-24T00:32:20.782Z,50.50
2018-05-24T00:34:49.754Z,52.60
2018-05-24T00:37:18.069Z,52.40
2018-05-24T00:39:47.075Z,56.70
2018-05-24T00:42:16.044Z,51.40
2018-05-24T00:44:44.264Z,51.40
2018-05-24T00:47:13.249Z,51.30
2018-05-24T00:49:41.486Z,51.20
2018-05-24T00:52:09.697Z,49.70
2018-05-24T00:54:37.997Z,49.70
2018-05-24T00:57:06.146Z,55.10
2018-05-24T00:59:34.369Z,49.60
2018-05-24T01:02:02.590Z,49.70
2018-05-24T01:04:30.863Z,49.80
2018-05-24T01:06:59.065Z,50.60
2018-05-24T01:09:27.320Z,54.10
2018-05-24T01:11:55.640Z,49.20
2018-05-24T01:14:23.853Z,49.70
2018-05-24T01:16:52.074Z,50.20
2018-05-24T01:19:20.308Z,50.30
2018-05-24T01:21:48.608Z,53.90
2018-05-24T01:24:17.638Z,49.80
2018-05-24T01:26:45.865Z,49.80
2018-05-24T01:29:14.191Z,49.70
2018-05-24T01:31:43.161Z,49.90
2018-05-24T01:34:11.414Z,50.10
2018-05-24T01:36:51.673Z,53.60
2018-05-24T01:39:19.884Z,53.10
2018-05-24T01:41:48.101Z,54.10
2018-05-24T01:44:16.354Z,59.80
2018-05-24T01:46:44.618Z,55.40
2018-05-24T01:49:13.615Z,50.20
2018-05-24T01:51:42.601Z,50.30
2018-05-24T01:54:10.836Z,50.30
2018-05-24T01:56:39.047Z,51.90
2018-05-24T01:59:07.284Z,58.00
2018-05-24T02:01:36.269Z,55.00
2018-05-24T02:04:04.488Z,54.90
2018-05-24T02:06:32.765Z,56.20
2018-05-24T02:09:01.819Z,55.30
2018-05-24T02:11:30.034Z,55.50
2018-05-24T02:13:58.249Z,55.10
2018-05-24T02:16:27.246Z,61.70
2018-05-24T02:18:55.449Z,61.40
2018-05-24T02:21:23.684Z,58.90
2018-05-24T02:23:51.908Z,60.80
2018-05-24T02:26:20.917Z,61.10
2018-05-24T02:28:49.999Z,51.20
2018-05-24T02:31:18.201Z,50.90
2018-05-24T02:33:46.421Z,51.40
2018-05-24T02:36:14.629Z,61.30
2018-05-24T02:38:42.869Z,50.40
2018-05-24T02:41:11.071Z,52.00
2018-05-24T02:43:40.064Z,53.40
2018-05-24T02:46:09.081Z,51.40
2018-05-24T02:48:38.059Z,54.40
2018-05-24T02:51:06.302Z,53.80
2018-05-24T02:53:34.571Z,50.90
2018-05-24T02:56:03.601Z,50.70
2018-05-24T02:58:31.882Z,50.60
2018-05-24T03:01:00.099Z,51.30
2018-05-24T03:03:28.309Z,51.60
2018-05-24T03:05:56.546Z,51.70
2018-05-24T03:08:24.745Z,51.90
2018-05-24T03:10:52.972Z,52.30
2018-05-24T03:13:21.287Z,54.90
2018-05-24T03:15:50.301Z,51.90
2018-05-24T03:18:18.563Z,51.90
2018-05-24T03:20:46.765Z,51.30
2018-05-24T03:23:15.749Z,53.00
2018-05-24T03:25:43.968Z,53.30
2018-05-24T03:28:12.941Z,51.80
2018-05-24T03:30:41.169Z,51.80
2018-05-24T03:33:09.382Z,52.20
2018-05-24T03:35:37.626Z,51.70
2018-05-24T03:38:06.617Z,55.40
2018-05-24T03:40:34.862Z,55.20
2018-05-24T03:43:03.085Z,51.10
2018-05-24T03:45:31.413Z,52.60
2018-05-24T03:47:59.643Z,52.30
2018-05-24T03:50:27.884Z,59.60
2018-05-24T03:52:56.869Z,56.60
2018-05-24T03:55:25.081Z,56.70
2018-05-24T03:57:53.420Z,52.40
2018-05-24T04:00:33.353Z,52.80
2018-05-24T04:03:13.553Z,55.30
2018-05-24T04:05:41.882Z,58.20
2018-05-24T04:08:10.872Z,52.60
2018-05-24T04:10:39.919Z,52.60
2018-05-24T04:13:08.191Z,52.90
2018-05-24T04:15:37.210Z,53.10
2018-05-24T04:18:05.477Z,52.90
2018-05-24T04:20:34.472Z,60.00
2018-05-24T04:23:02.711Z,60.00
2018-05-24T04:25:30.972Z,52.50
2018-05-24T04:27:59.962Z,57.30
2018-05-24T04:30:28.941Z,53.00
2018-05-24T04:32:57.181Z,52.90
2018-05-24T04:35:25.400Z,57.50
2018-05-24T04:37:53.625Z,56.00
2018-05-24T04:40:22.618Z,53.80
2018-05-24T04:42:50.897Z,53.90
2018-05-24T04:45:19.171Z,54.60
2018-05-24T04:47:47.401Z,54.90
2018-05-24T04:50:16.377Z,57.20
2018-05-24T04:52:44.655Z,57.00
2018-05-24T04:55:13.064Z,55.00
2018-05-24T04:57:41.277Z,55.70
2018-05-24T05:00:10.288Z,54.80
2018-05-24T05:02:39.282Z,56.90
2018-05-24T05:05:07.509Z,56.80
2018-05-24T05:07:35.758Z,55.50
2018-05-24T05:10:03.996Z,55.50
2018-05-24T05:12:32.261Z,62.00
2018-05-24T05:15:00.538Z,58.00
2018-05-24T05:17:30.253Z,56.00
2018-05-24T05:19:59.258Z,57.30
2018-05-24T05:22:28.262Z,56.30
2018-05-24T05:24:57.277Z,56.40
2018-05-24T05:27:25.497Z,56.30
2018-05-24T05:29:53.771Z,56.50
2018-05-24T05:32:23.607Z,56.60
2018-05-24T05:34:51.828Z,56.60
2018-05-24T05:37:20.173Z,58.80
2018-05-24T05:39:48.385Z,56.90
2018-05-24T05:42:16.605Z,62.00
2018-05-24T05:44:44.936Z,61.60
2018-05-24T05:47:14.021Z,58.10
2018-05-24T05:49:43.026Z,57.90
2018-05-24T05:52:12.050Z,57.30
2018-05-24T05:54:41.041Z,63.50
2018-05-24T05:57:10.053Z,64.00
2018-05-24T05:59:39.080Z,63.90
2018-05-24T06:02:07.324Z,63.90
2018-05-24T06:04:35.629Z,64.50
2018-05-24T06:07:03.933Z,64.50
2018-05-24T06:09:32.929Z,57.80
2018-05-24T06:12:01.977Z,58.20
2018-05-24T06:14:30.200Z,58.20
2018-05-24T06:16:58.433Z,63.50
2018-05-24T06:19:26.650Z,57.80
2018-05-24T06:21:54.889Z,64.30
2018-05-24T06:24:23.102Z,64.40
2018-05-24T06:26:51.408Z,65.10
2018-05-24T06:29:19.630Z,65.20
2018-05-24T06:31:47.851Z,65.10
2018-05-24T06:34:16.852Z,58.70
2018-05-24T06:36:45.844Z,65.10
2018-05-24T06:39:14.139Z,65.00
2018-05-24T06:41:43.144Z,64.80
2018-05-24T06:44:11.357Z,64.80
2018-05-24T06:46:39.698Z,64.60
2018-05-24T06:49:07.914Z,58.80
2018-05-24T06:51:37.137Z,64.90
2018-05-24T06:54:06.129Z,65.10
2018-05-24T06:56:35.155Z,58.70
2018-05-24T06:59:03.436Z,58.70
2018-05-24T07:01:32.445Z,59.70
2018-05-24T07:04:00.683Z,59.60
2018-05-24T07:06:28.909Z,64.30
2018-05-24T07:08:57.922Z,64.20
2018-05-24T07:11:26.978Z,63.30
2018-05-24T07:13:55.206Z,63.10
2018-05-24T07:16:24.328Z,58.90
2018-05-24T07:18:54.042Z,62.70
2018-05-24T07:21:23.077Z,60.40
2018-05-24T07:23:51.325Z,60.60
2018-05-24T07:26:19.538Z,64.00
2018-05-24T07:28:47.754Z,65.00
2018-05-24T07:31:15.988Z,63.00
2018-05-24T07:33:44.283Z,63.30
2018-05-24T07:36:13.292Z,63.90
2018-05-24T07:38:42.325Z,61.50
2018-05-24T07:41:10.593Z,61.50
2018-05-24T07:43:39.590Z,65.00
2018-05-24T07:46:07.901Z,65.10
2018-05-24T07:48:36.132Z,65.80
2018-05-24T07:51:04.377Z,66.00
2018-05-24T07:53:32.658Z,65.90
2018-05-24T07:56:01.788Z,63.30
2018-05-24T07:58:30.760Z,63.10
2018-05-24T08:00:59.761Z,63.90
2018-05-24T08:03:28.769Z,63.00
2018-05-24T08:05:56.997Z,63.00
2018-05-24T08:08:25.209Z,59.10
2018-05-24T08:10:53.450Z,64.70
2018-05-24T08:13:21.717Z,65.10
2018-05-24T08:15:50.106Z,66.10
2018-05-24T08:18:18.321Z,65.70
2018-05-24T08:20:47.306Z,65.30
2018-05-24T08:23:16.318Z,66.10
2018-05-24T08:25:45.432Z,65.50
2018-05-24T08:28:14.406Z,64.70
2018-05-24T08:30:42.798Z,64.70
2018-05-24T08:33:10.977Z,64.30
2018-05-24T08:35:39.193Z,65.10
2018-05-24T08:38:08.210Z,65.20
2018-05-24T08:40:37.240Z,57.10
2018-05-24T08:43:05.409Z,57.10
2018-05-24T08:45:33.687Z,61.60
2018-05-24T08:48:02.829Z,61.00
2018-05-24T08:50:31.081Z,60.40
2018-05-24T08:52:59.275Z,64.40
2018-05-24T08:55:28.314Z,65.40
2018-05-24T08:57:56.536Z,65.30
2018-05-24T09:00:24.849Z,65.50
2018-05-24T09:02:53.867Z,64.60
2018-05-24T09:05:22.147Z,64.50
2018-05-24T09:07:51.140Z,58.90
2018-05-24T09:10:19.364Z,58.70
2018-05-24T09:12:47.583Z,63.20
2018-05-24T09:15:15.825Z,63.90
2018-05-24T09:17:44.862Z,64.70
2018-05-24T09:20:13.219Z,64.70
2018-05-24T09:22:42.109Z,64.50
2018-05-24T09:25:10.332Z,64.50
2018-05-24T09:27:38.589Z,63.20
2018-05-24T09:30:07.592Z,65.20
2018-05-24T09:32:36.710Z,63.40
2018-05-24T09:35:05.006Z,62.60
2018-05-24T09:37:34.043Z,64.20
2018-05-24T09:40:02.297Z,64.20
2018-05-24T09:42:31.401Z,64.70
2018-05-24T09:45:00.398Z,64.80
2018-05-24T09:47:28.689Z,64.70
2018-05-24T09:49:57.689Z,62.70
2018-05-24T09:52:26.012Z,62.70
2018-05-24T09:54:54.987Z,64.30
2018-05-24T09:57:23.199Z,64.20
2018-05-24T09:59:52.189Z,64.40
2018-05-24T10:02:21.212Z,57.60
2018-05-24T10:04:49.485Z,57.60
2018-05-24T10:07:18.466Z,60.40
2018-05-24T10:09:46.675Z,60.80
2018-05-24T10:12:15.790Z,64.50
2018-05-24T10:14:44.796Z,63.10
2018-05-24T10:17:13.835Z,62.40
2018-05-24T10:19:42.789Z,63.80
2018-05-24T10:22:11.006Z,63.90
2018-05-24T10:24:39.993Z,64.60
2018-05-24T10:27:09.021Z,62.40
2018-05-24T10:29:38.025Z,63.10
2018-05-24T10:32:06.249Z,63.00
2018-05-24T10:34:34.491Z,64.80
2018-05-24T10:37:02.765Z,64.60
2018-05-24T10:39:31.761Z,64.30
2018-05-24T10:42:00.056Z,64.20
2018-05-24T10:44:28.981Z,59.30
2018-05-24T10:46:57.985Z,59.40
2018-05-24T10:49:26.191Z,59.50
2018-05-24T10:51:55.169Z,65.60
2018-05-24T10:54:23.462Z,65.60
2018-05-24T10:56:52.573Z,63.90
2018-05-24T10:59:21.653Z,63.80
2018-05-24T11:01:49.875Z,64.70
2018-05-24T11:04:18.865Z,61.00
2018-05-24T11:06:47.866Z,63.90
2018-05-24T11:09:17.574Z,63.10
2018-05-24T11:11:45.835Z,63.20
2018-05-24T11:14:14.020Z,62.90
2018-05-24T11:16:42.261Z,64.50
2018-05-24T11:19:11.262Z,61.80
2018-05-24T11:21:40.264Z,64.10
2018-05-24T11:24:08.590Z,64.10
2018-05-24T11:26:36.965Z,64.40
2018-05-24T11:29:05.958Z,64.10
2018-05-24T11:31:34.957Z,62.50
2018-05-24T11:34:03.203Z,62.50
2018-05-24T11:36:31.425Z,58.80
2018-05-24T11:38:59.679Z,62.80
2018-05-24T11:41:27.894Z,62.20
2018-05-24T11:43:56.100Z,63.00
2018-05-24T11:46:25.099Z,64.00
2018-05-24T11:48:54.069Z,63.80
2018-05-24T11:51:22.299Z,63.80
2018-05-24T11:53:50.595Z,63.40
2018-05-24T11:56:19.589Z,64.20
2018-05-24T11:58:47.805Z,64.20
2018-05-24T12:01:18.628Z,62.90
2018-05-24T12:03:47.697Z,63.00
2018-05-24T12:06:16.037Z,63.80
2018-05-24T12:08:45.075Z,63.90
2018-05-24T12:11:14.092Z,63.90
2018-05-24T12:13:42.341Z,63.80
2018-05-24T12:16:11.441Z,63.70
2018-05-24T12:18:40.453Z,64.30
2018-05-24T12:21:09.479Z,63.70
2018-05-24T12:23:37.702Z,63.60
2018-05-24T12:26:06.038Z,64.60
2018-05-24T12:28:35.164Z,63.20
2018-05-24T12:31:03.423Z,63.20
2018-05-24T12:33:31.726Z,64.20
2018-05-24T12:36:00.722Z,63.50
2018-05-24T12:38:29.733Z,64.20
2018-05-24T12:40:58.734Z,62.70
2018-05-24T12:43:27.751Z,63.80
2018-05-24T12:45:56.031Z,63.80
2018-05-24T12:48:25.028Z,64.20
2018-05-24T12:50:54.038Z,63.90
2018-05-24T12:53:23.332Z,63.80
2018-05-24T12:55:51.554Z,63.80
2018-05-24T12:58:20.533Z,63.90
2018-05-24T13:00:48.871Z,63.80
2018-05-24T13:03:17.172Z,64.30
2018-05-24T13:05:46.253Z,62.40
2018-05-24T13:08:14.608Z,62.30
2018-05-24T13:10:43.552Z,64.50
2018-05-24T13:13:13.626Z,64.50
2018-05-24T13:15:41.838Z,64.50
2018-05-24T13:18:10.078Z,64.40
2018-05-24T13:20:39.190Z,64.60
2018-05-24T13:23:08.173Z,64.80
2018-05-24T13:25:36.446Z,64.70
2018-05-24T13:28:04.690Z,65.00
2018-05-24T13:30:34.086Z,64.50
2018-05-24T13:33:03.098Z,64.00
2018-05-24T13:35:32.106Z,63.30
2018-05-24T13:38:01.085Z,64.80
2018-05-24T13:40:30.127Z,65.70
2018-05-24T13:42:59.601Z,63.60
2018-05-24T13:45:29.345Z,64.20
2018-05-24T13:47:58.353Z,64.50
2018-05-24T13:50:27.357Z,64.40
2018-05-24T13:52:56.349Z,64.70
2018-05-24T13:55:24.648Z,64.60
2018-05-24T13:57:52.949Z,65.00
2018-05-24T14:00:21.942Z,62.50
2018-05-24T14:02:50.224Z,62.40
2018-05-24T14:05:19.951Z,63.70
2018-05-24T14:07:48.989Z,64.70
2018-05-24T14:10:17.267Z,64.70
2018-05-24T14:12:46.261Z,63.20
2018-05-24T14:15:14.680Z,63.20
2018-05-24T14:17:42.921Z,64.60
2018-05-24T14:20:11.228Z,64.60
2018-05-24T14:22:40.259Z,65.50
2018-05-24T14:25:08.489Z,65.10
2018-05-24T14:27:36.785Z,63.30
2018-05-24T14:30:05.031Z,62.70
2018-05-24T14:32:33.324Z,62.40
2018-05-24T14:35:01.585Z,63.30
2018-05-24T14:37:30.568Z,65.00
2018-05-24T14:39:58.784Z,65.00
2018-05-24T14:42:27.800Z,64.50
2018-05-24T14:44:56.941Z,61.00
2018-05-24T14:47:25.219Z,60.90
2018-05-24T14:49:53.401Z,64.00
2018-05-24T14:52:21.672Z,64.60
2018-05-24T14:54:49.857Z,64.40
2018-05-24T14:57:18.089Z,58.90
2018-05-24T14:59:46.422Z,63.60
2018-05-24T15:02:15.418Z,64.80
2018-05-24T15:04:43.669Z,64.70
2018-05-24T15:07:12.020Z,65.40
2018-05-24T15:09:41.104Z,64.90
2018-05-24T15:12:09.417Z,64.70
2018-05-24T15:14:38.405Z,65.00
2018-05-24T15:17:07.410Z,65.00
2018-05-24T15:19:35.646Z,64.50
2018-05-24T15:22:03.885Z,65.20
2018-05-24T15:24:33.282Z,64.50
2018-05-24T15:27:01.640Z,64.20
2018-05-24T15:29:29.871Z,64.30
2018-05-24T15:31:58.089Z,64.90
2018-05-24T15:34:26.310Z,65.10
2018-05-24T15:36:54.695Z,64.70
2018-05-24T15:39:23.747Z,65.40
2018-05-24T15:41:52.022Z,65.30
2018-05-24T15:44:20.260Z,64.80
2018-05-24T15:46:49.239Z,65.20
2018-05-24T15:49:18.225Z,65.20
2018-05-24T15:51:46.537Z,65.80
2018-05-24T15:54:15.529Z,65.10
2018-05-24T15:56:43.757Z,65.00
2018-05-24T15:59:11.990Z,65.00
2018-05-24T16:01:40.338Z,64.70
2018-05-24T16:04:08.605Z,64.80
2018-05-24T16:06:37.608Z,64.50
2018-05-24T16:09:06.649Z,65.00
2018-05-24T16:11:34.936Z,65.10
2018-05-24T16:14:03.177Z,64.70
2018-05-24T16:16:31.557Z,64.90
2018-05-24T16:18:59.751Z,65.30
2018-05-24T16:21:27.981Z,65.20
2018-05-24T16:23:56.189Z,65.80
2018-05-24T16:26:24.460Z,65.20
2018-05-24T16:28:52.697Z,65.30
2018-05-24T16:31:20.934Z,65.10
2018-05-24T16:33:49.194Z,65.60
2018-05-24T16:36:17.454Z,65.00
2018-05-24T16:38:45.700Z,64.50
2018-05-24T16:41:13.904Z,65.00
2018-05-24T16:43:42.129Z,64.90
2018-05-24T16:46:10.364Z,64.90
2018-05-24T16:48:38.659Z,65.10
2018-05-24T16:51:06.900Z,65.80
2018-05-24T16:53:35.125Z,65.70
2018-05-24T16:56:03.387Z,65.90
2018-05-24T16:58:32.371Z,66.30
2018-05-24T17:01:00.590Z,65.40
2018-05-24T17:03:29.576Z,65.80
2018-05-24T17:05:58.571Z,66.20
2018-05-24T17:08:26.790Z,66.10
2018-05-24T17:10:55.787Z,66.30
2018-05-24T17:13:24.758Z,65.40
2018-05-24T17:15:52.973Z,65.30
2018-05-24T17:18:21.957Z,66.30
2018-05-24T17:20:50.169Z,66.20
2018-05-24T17:23:19.150Z,64.90
2018-05-24T17:25:47.368Z,64.90
2018-05-24T17:28:16.377Z,65.30
2018-05-24T17:30:45.380Z,65.80
2018-05-24T17:33:14.374Z,66.10
2018-05-24T17:35:42.581Z,65.80
2018-05-24T17:38:10.843Z,65.90
2018-05-24T17:40:39.084Z,65.40
2018-05-24T17:43:07.410Z,65.30
2018-05-24T17:45:35.653Z,64.50
2018-05-24T17:48:03.977Z,66.00
2018-05-24T17:50:32.292Z,65.20
2018-05-24T17:53:00.503Z,65.70
2018-05-24T17:55:28.714Z,65.80
2018-05-24T17:57:56.959Z,66.00
2018-05-24T18:00:25.162Z,66.40
2018-05-24T18:02:54.153Z,66.40
2018-05-24T18:05:23.129Z,66.50
2018-05-24T18:07:52.125Z,66.10
2018-05-24T18:10:20.353Z,65.50
2018-05-24T18:12:49.333Z,66.40
2018-05-24T18:15:17.565Z,66.40
2018-05-24T18:17:45.792Z,66.60
2018-05-24T18:20:14.021Z,66.30
2018-05-24T18:22:42.240Z,66.20
2018-05-24T18:25:10.579Z,66.30
2018-05-24T18:27:38.774Z,66.30
2018-05-24T18:30:06.993Z,66.50
2018-05-24T18:32:36.088Z,64.20
2018-05-24T18:35:05.077Z,63.30
2018-05-24T18:37:33.313Z,63.40
2018-05-24T18:40:01.533Z,66.00
2018-05-24T18:42:29.747Z,66.20
2018-05-24T18:44:58.040Z,65.20
2018-05-24T18:47:27.034Z,66.90
2018-05-24T18:49:55.249Z,66.90
2018-05-24T18:52:23.457Z,67.00
2018-05-24T18:54:51.700Z,66.60
2018-05-24T18:57:19.912Z,65.60
2018-05-24T18:59:48.142Z,66.40
2018-05-24T19:02:16.386Z,66.60
2018-05-24T19:04:45.365Z,66.70
2018-05-24T19:07:13.618Z,66.70
2018-05-24T19:09:41.870Z,66.40
2018-05-24T19:12:10.191Z,65.10
2018-05-24T19:14:38.426Z,65.70
2018-05-24T19:17:06.667Z,66.50
2018-05-24T19:19:34.923Z,67.00
2018-05-24T19:22:03.214Z,67.20
2018-05-24T19:24:32.213Z,66.60
2018-05-24T19:27:01.214Z,67.40
2018-05-24T19:29:30.215Z,66.90
2018-05-24T19:31:59.226Z,64.40
2018-05-24T19:34:28.240Z,63.90
2018-05-24T19:36:56.422Z,64.00
2018-05-24T19:39:25.408Z,66.30
2018-05-24T19:41:53.632Z,66.30
2018-05-24T19:44:22.608Z,65.70
2018-05-24T19:46:50.839Z,65.80
2018-05-24T19:49:19.069Z,65.80
2018-05-24T19:51:47.351Z,65.90
2018-05-24T19:54:15.557Z,66.60
2018-05-24T19:56:43.881Z,65.30
2018-05-24T19:59:12.081Z,67.10
2018-05-24T20:01:40.342Z,66.60
2018-05-24T20:04:09.336Z,67.10
2018-05-24T20:06:37.573Z,67.20
2018-05-24T20:09:05.865Z,66.40
2018-05-24T20:11:34.093Z,66.90
2018-05-24T20:14:02.308Z,66.00
2018-05-24T20:16:30.539Z,66.30
2018-05-24T20:18:59.516Z,65.80
2018-05-24T20:21:27.745Z,65.50
2018-05-24T20:23:55.966Z,66.40
2018-05-24T20:26:24.958Z,66.10
2018-05-24T20:28:53.235Z,66.00
2018-05-24T20:31:21.421Z,65.50
2018-05-24T20:33:49.677Z,66.80
2018-05-24T20:36:17.898Z,66.70
2018-05-24T20:38:46.119Z,64.10
2018-05-24T20:41:14.341Z,66.40
2018-05-24T20:43:42.571Z,66.20
2018-05-24T20:46:10.785Z,66.70
2018-05-24T20:48:39.788Z,67.00
2018-05-24T20:51:07.988Z,67.00
2018-05-24T20:53:36.968Z,66.90
2018-05-24T20:56:05.226Z,66.90
2018-05-24T20:58:33.486Z,64.40
2018-05-24T21:01:01.694Z,63.20
2018-05-24T21:03:29.926Z,61.80
2018-05-24T21:05:58.161Z,67.20
2018-05-24T21:08:26.379Z,67.10
2018-05-24T21:10:54.594Z,67.20
2018-05-24T21:13:23.583Z,66.70
2018-05-24T21:15:51.793Z,66.60
2018-05-24T21:18:20.774Z,61.10
2018-05-24T21:20:48.989Z,61.10
2018-05-24T21:23:17.964Z,66.20
2018-05-24T21:25:46.189Z,66.20
2018-05-24T21:28:14.848Z,65.70
2018-05-24T21:30:43.044Z,66.90
2018-05-24T21:33:11.268Z,67.00
2018-05-24T21:35:39.485Z,65.40
2018-05-24T21:38:07.736Z,63.70
2018-05-24T21:40:36.729Z,66.10
2018-05-24T21:43:05.741Z,62.60
2018-05-24T21:45:34.778Z,64.70
2018-05-24T21:48:02.960Z,64.70
2018-05-24T21:50:31.190Z,60.60
2018-05-24T21:52:59.444Z,66.30
2018-05-24T21:55:27.652Z,66.10
2018-05-24T21:57:55.879Z,67.00
2018-05-24T22:00:24.849Z,66.50
2018-05-24T22:02:53.060Z,66.40
2018-05-24T22:05:21.273Z,66.10
2018-05-24T22:07:49.512Z,66.40
2018-05-24T22:10:18.443Z,58.30
2018-05-24T22:12:46.680Z,62.80
2018-05-24T22:15:14.906Z,62.30
2018-05-24T22:17:43.121Z,64.40
2018-05-24T22:20:12.118Z,64.70
2018-05-24T22:22:40.388Z,64.80
2018-05-24T22:25:08.593Z,58.80
2018-05-24T22:27:37.912Z,58.50
2018-05-24T22:30:08.700Z,57.90
2018-05-24T22:32:37.661Z,63.80
2018-05-24T22:35:07.675Z,64.40
2018-05-24T22:37:35.918Z,63.40
2018-05-24T22:40:04.186Z,63.60
2018-05-24T22:42:32.420Z,65.00
2018-05-24T22:45:00.641Z,61.80
2018-05-24T22:47:29.621Z,57.20
2018-05-24T22:49:57.857Z,57.20
2018-05-24T22:52:26.837Z,64.40
2018-05-24T22:54:55.058Z,64.50
2018-05-24T22:57:23.286Z,56.90
2018-05-24T22:59:51.569Z,62.90
2018-05-24T23:02:19.805Z,65.50
2018-05-24T23:04:48.789Z,59.60
2018-05-24T23:07:17.014Z,59.60
2018-05-24T23:09:45.359Z,56.30
2018-05-24T23:12:13.541Z,57.30
2018-05-24T23:14:41.744Z,60.10
2018-05-24T23:17:09.989Z,59.90
2018-05-24T23:19:38.199Z,62.40
2018-05-24T23:22:06.437Z,56.80
2018-05-24T23:24:34.649Z,63.00
2018-05-24T23:27:02.935Z,61.20
2018-05-24T23:29:31.897Z,60.30
2018-05-24T23:32:00.876Z,58.50
2018-05-24T23:34:29.089Z,58.50
2018-05-24T23:36:58.069Z,61.10
2018-05-24T23:39:26.297Z,61.10
2018-05-24T23:41:54.512Z,59.70
2018-05-24T23:44:22.740Z,62.90
2018-05-24T23:46:50.957Z,58.90
2018-05-24T23:49:19.951Z,57.40
2018-05-24T23:51:48.944Z,58.10
2018-05-24T23:54:17.241Z,58.10
2018-05-24T23:56:46.333Z,57.50
2018-05-24T23:59:14.501Z,57.40
